Time;durP1;ratioP1;P1;durP2;ratioP2;P2;SDS_P1;SDS_P2;PMS_P1;PMS_P2;Temp;Humidity;BMP_temperature;BMP_pressure;BME280_temperature;BME280_humidity;BME280_pressure;Samples;Min_cycle;Max_cycle;Signal;HPM_P1;HPM_P2
2022/07/01 03:58:58;;;;;;;;;;;26.00;95.00;;;;;;5309059;23;20030;-79
2022/07/01 04:01:25;;;;;;;;;;;26.00;95.00;;;;;;4998071;28;19922;-78
2022/07/01 04:03:52;;;;;;;;;;;26.00;95.00;;;;;;4998453;28;19921;-78
2022/07/01 04:06:19;;;;;;;;;;;26.00;94.90;;;;;;4999680;28;19928;-78
2022/07/01 04:08:46;;;;;;;;;;;26.00;94.90;;;;;;4998893;28;20002;-78
2022/07/01 04:11:13;;;;;;;;;;;26.00;94.80;;;;;;4996966;28;20299;-79
2022/07/01 04:13:40;;;;;;;;;;;26.00;94.80;;;;;;4997127;28;20012;-78
2022/07/01 04:16:08;;;;;;;;;;;26.00;94.70;;;;;;4996395;28;20013;-78
2022/07/01 04:18:35;;;;;;;;;;;26.00;94.70;;;;;;4995251;28;20352;-78
2022/07/01 04:23:46;;;;;;;;;;;26.00;94.70;;;;;;4995314;28;20008;-77
2022/07/01 04:26:12;;;;;;;;;;;26.00;94.60;;;;;;4994723;28;20385;-77
2022/07/01 04:28:39;;;;;;;;;;;26.00;94.60;;;;;;4995154;28;19922;-77
2022/07/01 04:31:06;;;;;;;;;;;26.00;94.70;;;;;;4995167;28;20014;-77
2022/07/01 04:33:34;;;;;;;;;;;26.00;94.60;;;;;;4997476;28;20009;-78
2022/07/01 04:36:00;;;;;;;;;;;26.00;94.30;;;;;;4998533;28;19969;-80
2022/07/01 04:38:27;;;;;;;;;;;26.00;94.00;;;;;;5000339;28;19921;-81
2022/07/01 04:43:38;;;;;;;;;;;25.90;93.30;;;;;;4997107;28;20011;-77
2022/07/01 04:46:05;;;;;;;;;;;25.80;93.10;;;;;;4997748;28;19991;-79
2022/07/01 04:48:32;;;;;;;;;;;25.80;92.90;;;;;;4995407;28;20089;-77
2022/07/01 04:51:00;;;;;;;;;;;25.80;92.60;;;;;;4995034;28;19928;-77
2022/07/01 04:53:27;;;;;;;;;;;25.80;92.30;;;;;;4995866;28;19929;-78
2022/07/01 04:55:53;;;;;;;;;;;25.70;92.00;;;;;;4995744;28;19984;-78
2022/07/01 04:58:20;;;;;;;;;;;25.70;91.70;;;;;;4995156;28;19961;-77
2022/07/01 05:00:48;;;;;;;;;;;25.70;91.40;;;;;;4994619;28;20030;-77
2022/07/01 05:03:16;;;;;;;;;;;25.70;91.10;;;;;;4994697;28;19933;-77
2022/07/01 05:05:50;;;;;;;;;;;25.70;90.80;;;;;;4996887;28;19921;-78
2022/07/01 05:08:18;;;;;;;;;;;25.70;90.50;;;;;;4997052;28;19972;-80
2022/07/01 05:10:45;;;;;;;;;;;25.60;90.30;;;;;;4997031;28;19926;-79
2022/07/01 05:13:12;;;;;;;;;;;25.60;90.00;;;;;;4998087;28;19925;-79
2022/07/01 05:15:38;;;;;;;;;;;25.60;89.40;;;;;;4997258;28;19929;-79
2022/07/01 05:23:36;;;;;;;;;;;25.60;87.60;;;;;;4996869;28;20392;-82
2022/07/01 05:26:02;;;;;;;;;;;25.60;87.00;;;;;;4997021;28;19925;-82
2022/07/01 05:28:29;;;;;;;;;;;25.60;86.40;;;;;;5000647;28;19989;-81
2022/07/01 05:30:56;;;;;;;;;;;25.60;85.80;;;;;;5000978;28;19961;-80
2022/07/01 05:33:26;;;;;;;;;;;25.60;85.30;;;;;;5000633;28;20012;-80
2022/07/01 05:35:52;;;;;;;;;;;25.60;85.20;;;;;;4998689;28;19948;-78
2022/07/01 05:38:19;;;;;;;;;;;25.60;84.50;;;;;;5002103;28;19961;-80
2022/07/01 05:40:47;;;;;;;;;;;25.50;84.00;;;;;;5004972;28;19975;-81
2022/07/01 05:43:14;;;;;;;;;;;25.50;83.50;;;;;;5007179;28;19989;-81
2022/07/01 05:45:40;;;;;;;;;;;25.50;83.00;;;;;;5008991;28;20289;-81
2022/07/01 05:48:07;;;;;;;;;;;25.50;82.60;;;;;;5007550;28;19921;-80
2022/07/01 05:50:34;;;;;;;;;;;25.50;82.10;;;;;;5009856;28;19922;-80
2022/07/01 05:53:00;;;;;;;;;;;25.50;81.70;;;;;;4999291;28;20389;-79
2022/07/01 05:55:27;;;;;;;;;;;25.50;81.30;;;;;;4998227;28;20459;-81
2022/07/01 05:57:55;;;;;;;;;;;25.50;80.90;;;;;;4998823;28;20360;-81
2022/07/01 06:00:22;;;;;;;;;;;25.50;80.60;;;;;;5001855;28;20001;-79
2022/07/01 06:02:48;;;;;;;;;;;25.50;80.40;;;;;;5002779;28;20008;-79
2022/07/01 06:05:15;;;;;;;;;;;25.50;80.00;;;;;;5000323;28;19965;-79
2022/07/01 06:07:42;;;;;;;;;;;25.50;79.50;;;;;;5000608;28;19921;-80
2022/07/01 06:10:10;;;;;;;;;;;25.50;79.50;;;;;;4999884;28;19977;-80
2022/07/01 06:12:37;;;;;;;;;;;25.50;79.50;;;;;;4999697;28;20270;-80
2022/07/01 06:15:05;;;;;;;;;;;25.50;79.00;;;;;;5000174;28;20356;-80
2022/07/01 06:17:32;;;;;;;;;;;25.50;78.60;;;;;;4999642;28;19928;-80
2022/07/01 06:19:59;;;;;;;;;;;25.50;79.10;;;;;;4999818;28;19922;-80
2022/07/01 06:22:25;;;;;;;;;;;25.50;78.10;;;;;;4999739;28;19969;-80
2022/07/01 06:24:52;;;;;;;;;;;25.50;77.80;;;;;;4999273;28;20004;-80
2022/07/01 06:27:19;;;;;;;;;;;25.50;77.50;;;;;;4998830;28;19953;-80
2022/07/01 06:29:46;;;;;;;;;;;25.50;77.30;;;;;;4999076;28;19968;-80
2022/07/01 06:32:14;;;;;;;;;;;25.50;77.00;;;;;;4998865;28;20020;-80
2022/07/01 06:34:41;;;;;;;;;;;25.50;76.70;;;;;;4999436;28;20078;-80
2022/07/01 06:37:07;;;;;;;;;;;25.50;76.50;;;;;;4999889;28;19980;-80
2022/07/01 06:39:34;;;;;;;;;;;25.50;76.20;;;;;;4999483;28;19968;-80
2022/07/01 06:42:01;;;;;;;;;;;25.50;76.00;;;;;;4999304;28;20028;-80
2022/07/01 06:44:28;;;;;;;;;;;25.50;75.70;;;;;;4999374;28;20416;-79
2022/07/01 06:46:54;;;;;;;;;;;25.50;75.50;;;;;;4999324;28;19922;-79
2022/07/01 06:49:22;;;;;;;;;;;25.50;75.30;;;;;;4999509;28;19928;-79
2022/07/01 06:51:49;;;;;;;;;;;25.50;75.10;;;;;;4998933;28;20016;-79
2022/07/01 06:54:17;;;;;;;;;;;25.50;74.80;;;;;;4999117;28;20008;-79
2022/07/01 06:56:44;;;;;;;;;;;25.50;74.60;;;;;;4999187;28;19926;-79
2022/07/01 06:59:10;;;;;;;;;;;25.50;74.40;;;;;;4999260;28;20016;-79
2022/07/01 07:01:37;;;;;;;;;;;25.50;74.10;;;;;;4998883;28;19976;-79
2022/07/01 07:04:04;;;;;;;;;;;25.50;73.70;;;;;;4999149;28;19976;-79
2022/07/01 07:06:32;;;;;;;;;;;25.50;73.50;;;;;;4999063;28;20008;-79
2022/07/01 07:08:59;;;;;;;;;;;25.50;73.50;;;;;;4998215;28;20420;-79
2022/07/01 07:11:27;;;;;;;;;;;25.50;73.50;;;;;;4998756;28;19995;-79
2022/07/01 07:13:53;;;;;;;;;;;25.50;73.50;;;;;;4999082;28;19921;-79
2022/07/01 07:16:20;;;;;;;;;;;25.50;73.30;;;;;;4998837;28;20012;-79
2022/07/01 07:18:47;;;;;;;;;;;25.50;73.10;;;;;;4999276;28;19941;-79
2022/07/01 07:21:14;;;;;;;;;;;25.50;72.80;;;;;;4999233;28;19989;-79
2022/07/01 07:23:42;;;;;;;;;;;25.50;72.60;;;;;;4999198;28;19975;-79
2022/07/01 07:26:09;;;;;;;;;;;25.50;72.50;;;;;;4998820;28;19929;-79
2022/07/01 07:28:36;;;;;;;;;;;25.50;72.30;;;;;;4998334;28;19932;-79
2022/07/01 07:31:03;;;;;;;;;;;25.50;72.10;;;;;;4998632;28;20441;-79
2022/07/01 07:33:29;;;;;;;;;;;25.50;71.90;;;;;;4998450;28;20437;-79
2022/07/01 07:35:56;;;;;;;;;;;25.50;71.80;;;;;;4998167;28;20311;-79
2022/07/01 07:38:22;;;;;;;;;;;25.50;71.60;;;;;;4998729;28;20412;-81
2022/07/01 07:40:51;;;;;;;;;;;25.50;71.50;;;;;;4999117;28;19953;-80
2022/07/01 07:43:17;;;;;;;;;;;25.50;71.70;;;;;;4998383;28;20009;-79
2022/07/01 07:45:44;;;;;;;;;;;25.50;71.20;;;;;;4999164;28;20004;-79
2022/07/01 07:48:10;;;;;;;;;;;25.50;71.00;;;;;;4999062;28;19977;-79
2022/07/01 07:50:37;;;;;;;;;;;25.50;71.60;;;;;;4998413;28;19983;-79
2022/07/01 07:53:04;;;;;;;;;;;25.50;71.50;;;;;;4998787;28;20381;-79
2022/07/01 07:55:30;;;;;;;;;;;25.50;70.50;;;;;;4999081;28;20009;-79
2022/07/01 07:57:58;;;;;;;;;;;25.50;70.40;;;;;;4999211;28;19929;-79
2022/07/01 08:00:25;;;;;;;;;;;25.50;70.30;;;;;;4999191;28;20432;-79
2022/07/01 08:02:52;;;;;;;;;;;25.50;70.20;;;;;;4999102;28;20393;-79
2022/07/01 08:05:18;;;;;;;;;;;25.50;70.00;;;;;;4998392;28;20440;-79
2022/07/01 08:07:45;;;;;;;;;;;25.50;69.90;;;;;;4998401;28;20471;-79
2022/07/01 08:10:13;;;;;;;;;;;25.50;69.80;;;;;;4998342;28;20358;-79
2022/07/01 08:12:40;;;;;;;;;;;25.50;69.70;;;;;;4998493;28;19922;-79
2022/07/01 08:15:09;;;;;;;;;;;25.50;69.60;;;;;;4998948;28;19922;-79
2022/07/01 08:17:36;;;;;;;;;;;25.50;69.50;;;;;;4998622;28;20509;-79
2022/07/01 08:20:03;;;;;;;;;;;25.50;69.30;;;;;;4998809;28;20436;-79
2022/07/01 08:22:30;;;;;;;;;;;25.50;69.20;;;;;;4998107;28;19991;-79
2022/07/01 08:24:56;;;;;;;;;;;25.50;69.10;;;;;;4998968;28;20352;-79
2022/07/01 08:27:23;;;;;;;;;;;25.50;69.00;;;;;;4998484;28;20009;-79
2022/07/01 08:29:50;;;;;;;;;;;25.50;68.90;;;;;;4998186;28;19976;-79
2022/07/01 08:32:18;;;;;;;;;;;25.50;68.80;;;;;;4998188;28;19928;-79
2022/07/01 08:34:45;;;;;;;;;;;25.50;68.70;;;;;;4998384;28;19921;-79
2022/07/01 08:37:11;;;;;;;;;;;25.50;68.60;;;;;;4998560;28;19968;-79
2022/07/01 08:39:38;;;;;;;;;;;25.50;68.40;;;;;;4997794;28;20004;-79
2022/07/01 08:42:05;;;;;;;;;;;25.50;68.30;;;;;;4998103;28;20009;-79
2022/07/01 08:44:32;;;;;;;;;;;25.50;68.20;;;;;;4997929;28;19922;-79
2022/07/01 08:46:58;;;;;;;;;;;25.50;68.10;;;;;;4998500;28;19928;-79
2022/07/01 08:49:26;;;;;;;;;;;25.50;68.00;;;;;;4998344;28;20028;-79
2022/07/01 08:51:53;;;;;;;;;;;25.50;67.80;;;;;;4998469;28;20028;-79
2022/07/01 08:54:20;;;;;;;;;;;25.50;67.80;;;;;;4999188;28;20000;-79
2022/07/01 08:56:46;;;;;;;;;;;25.40;67.40;;;;;;4999008;28;20004;-79
2022/07/01 08:59:14;;;;;;;;;;;25.50;67.50;;;;;;4998963;28;20000;-79
2022/07/01 09:01:41;;;;;;;;;;;25.50;67.50;;;;;;4998350;28;20012;-79
2022/07/01 09:04:14;;;;;;;;;;;25.50;67.50;;;;;;4999382;28;20016;-79
2022/07/01 09:06:42;;;;;;;;;;;25.40;67.50;;;;;;4997819;28;19976;-79
2022/07/01 09:09:13;;;;;;;;;;;25.40;67.40;;;;;;4998070;28;19922;-78
2022/07/01 09:11:44;;;;;;;;;;;25.40;67.40;;;;;;4998496;28;19921;-78
2022/07/01 09:14:12;;;;;;;;;;;25.40;67.50;;;;;;4997709;28;19957;-78
2022/07/01 09:16:43;;;;;;;;;;;25.40;67.40;;;;;;4998587;28;20013;-79
2022/07/01 09:19:10;;;;;;;;;;;25.40;67.10;;;;;;4998016;28;19969;-77
2022/07/01 09:21:36;;;;;;;;;;;25.40;66.90;;;;;;4994664;28;19922;-77
2022/07/01 09:24:05;;;;;;;;;;;25.40;66.80;;;;;;4994660;28;19928;-77
2022/07/01 09:26:32;;;;;;;;;;;25.40;66.80;;;;;;4994143;28;19972;-77
2022/07/01 09:28:59;;;;;;;;;;;25.40;66.70;;;;;;4994071;28;20001;-77
2022/07/01 09:31:32;;;;;;;;;;;25.40;66.70;;;;;;4994435;28;20029;-77
2022/07/01 09:34:06;;;;;;;;;;;25.40;66.50;;;;;;4997679;28;20359;-77
2022/07/01 09:36:32;;;;;;;;;;;25.40;66.20;;;;;;4998091;28;20332;-77
2022/07/01 09:39:03;;;;;;;;;;;25.40;66.00;;;;;;4998342;28;20333;-77
2022/07/01 09:41:35;;;;;;;;;;;25.30;65.80;;;;;;4998149;28;19928;-77
2022/07/01 09:44:04;;;;;;;;;;;25.30;65.80;;;;;;4998419;28;20016;-77
2022/07/01 09:46:31;;;;;;;;;;;25.30;65.70;;;;;;4998229;28;19976;-77
2022/07/01 09:48:58;;;;;;;;;;;25.30;65.60;;;;;;4997784;28;20381;-77
2022/07/01 09:51:25;;;;;;;;;;;25.30;65.50;;;;;;4998551;28;20024;-77
2022/07/01 09:53:51;;;;;;;;;;;25.30;65.40;;;;;;4998094;28;19921;-78
2022/07/01 09:56:19;;;;;;;;;;;25.30;65.30;;;;;;4998022;28;20012;-78
2022/07/01 09:58:47;;;;;;;;;;;25.30;65.20;;;;;;4998205;28;20020;-78
2022/07/01 10:01:14;;;;;;;;;;;25.30;65.10;;;;;;4997767;28;19921;-78
2022/07/01 10:03:41;;;;;;;;;;;25.30;65.00;;;;;;5002925;28;19944;-79
2022/07/01 10:06:15;;;;;;;;;;;25.30;64.90;;;;;;5000866;28;19968;-79
2022/07/01 10:08:47;;;;;;;;;;;25.30;64.80;;;;;;5000193;28;20009;-79
2022/07/01 10:11:34;;;;;;;;;;;25.30;64.70;;;;;;4999617;28;20008;-79
2022/07/01 10:14:04;;;;;;;;;;;25.30;64.70;;;;;;4999699;28;20389;-79
2022/07/01 10:16:31;;;;;;;;;;;25.30;64.50;;;;;;5000945;28;20008;-79
2022/07/01 10:18:58;;;;;;;;;;;25.30;64.40;;;;;;5000967;28;20336;-79
2022/07/01 10:21:28;;;;;;;;;;;25.30;64.30;;;;;;5002138;28;20016;-79
2022/07/01 10:24:11;;;;;;;;;;;25.30;64.30;;;;;;4999906;28;19921;-79
2022/07/01 10:26:37;;;;;;;;;;;25.30;64.20;;;;;;5000642;28;20012;-79
2022/07/01 10:29:07;;;;;;;;;;;25.30;64.00;;;;;;5000341;28;20008;-79
2022/07/01 10:31:36;;;;;;;;;;;25.30;63.90;;;;;;5000538;28;20008;-79
2022/07/01 10:34:03;;;;;;;;;;;25.30;63.80;;;;;;5000262;28;19922;-79
2022/07/01 10:36:32;;;;;;;;;;;25.30;63.70;;;;;;4999718;28;20012;-79
2022/07/01 10:39:22;;;;;;;;;;;25.30;63.60;;;;;;5000946;28;19925;-80
2022/07/01 10:41:59;;;;;;;;;;;25.30;63.50;;;;;;5000998;28;20285;-81
2022/07/01 10:44:28;;;;;;;;;;;25.30;64.20;;;;;;5000754;28;19976;-81
2022/07/01 10:46:59;;;;;;;;;;;25.30;63.40;;;;;;5001449;28;20020;-83
2022/07/01 10:49:49;;;;;;;;;;;25.30;63.20;;;;;;5000005;28;19964;-84
2022/07/01 10:52:18;;;;;;;;;;;25.30;63.10;;;;;;4985037;28;19921;-85
2022/07/01 10:54:47;;;;;;;;;;;25.30;63.00;;;;;;4999921;28;20289;-84
2022/07/01 10:57:23;;;;;;;;;;;25.30;63.00;;;;;;4998824;28;19926;-79
2022/07/01 10:59:51;;;;;;;;;;;25.30;63.20;;;;;;4999412;28;19952;-80
2022/07/01 11:02:19;;;;;;;;;;;25.30;63.30;;;;;;4998955;28;20027;-81
2022/07/01 11:04:46;;;;;;;;;;;25.30;63.40;;;;;;4999550;28;19922;-78
2022/07/01 11:07:13;;;;;;;;;;;25.40;63.60;;;;;;5000277;28;20292;-82
2022/07/01 11:09:40;;;;;;;;;;;25.40;63.70;;;;;;5001425;28;19922;-82
2022/07/01 11:12:07;;;;;;;;;;;25.40;63.80;;;;;;5000637;28;20016;-82
2022/07/01 11:14:34;;;;;;;;;;;25.40;63.90;;;;;;5000872;28;20012;-80
2022/07/01 11:17:03;;;;;;;;;;;25.40;64.00;;;;;;5002867;28;20016;-80
2022/07/01 11:19:30;;;;;;;;;;;25.50;64.40;;;;;;5002294;28;20017;-80
2022/07/01 11:21:57;;;;;;;;;;;25.50;64.70;;;;;;5001527;28;19922;-80
2022/07/01 11:24:23;;;;;;;;;;;25.50;65.00;;;;;;5002929;28;19988;-80
2022/07/01 11:26:52;;;;;;;;;;;25.60;65.30;;;;;;5001672;28;19985;-80
2022/07/01 11:29:25;;;;;;;;;;;25.60;65.50;;;;;;5001276;28;20293;-78
2022/07/01 11:31:51;;;;;;;;;;;25.60;65.70;;;;;;5000180;28;19922;-80
2022/07/01 11:34:19;;;;;;;;;;;25.60;65.80;;;;;;4999763;28;20379;-81
2022/07/01 11:39:33;;;;;;;;;;;25.60;66.00;;;;;;5001928;28;19933;-80
2022/07/01 11:42:00;;;;;;;;;;;25.60;66.10;;;;;;5000629;28;19953;-80
2022/07/01 11:44:31;;;;;;;;;;;25.60;66.20;;;;;;5001928;28;20017;-81
2022/07/01 11:46:58;;;;;;;;;;;25.60;66.30;;;;;;4999879;28;20353;-78
2022/07/01 11:49:26;;;;;;;;;;;25.60;66.40;;;;;;5000697;28;19965;-78
2022/07/01 11:51:56;;;;;;;;;;;25.60;66.50;;;;;;5000587;28;19972;-79
2022/07/01 11:54:23;;;;;;;;;;;25.60;66.60;;;;;;5001523;28;20020;-78
2022/07/01 11:56:50;;;;;;;;;;;25.60;66.70;;;;;;5001589;28;19977;-80
2022/07/01 11:59:17;;;;;;;;;;;25.60;66.80;;;;;;5000028;28;19922;-82
2022/07/01 12:01:51;;;;;;;;;;;25.60;66.80;;;;;;4999141;28;19926;-81
2022/07/01 12:04:18;;;;;;;;;;;25.60;66.90;;;;;;4998363;28;19961;-81
2022/07/01 12:06:46;;;;;;;;;;;25.60;66.90;;;;;;4998288;28;19921;-80
2022/07/01 12:09:14;;;;;;;;;;;25.60;66.90;;;;;;4997711;28;20033;-80
2022/07/01 12:11:44;;;;;;;;;;;25.60;66.90;;;;;;4997087;28;19928;-81
2022/07/01 12:14:11;;;;;;;;;;;25.60;66.90;;;;;;5000241;28;20017;-82
2022/07/01 12:16:43;;;;;;;;;;;25.60;66.90;;;;;;5002369;28;19928;-82
2022/07/01 12:19:11;;;;;;;;;;;25.60;66.90;;;;;;4985237;28;19926;-82
2022/07/01 12:21:50;;;;;;;;;;;25.60;66.90;;;;;;5003948;28;19928;-82
2022/07/01 12:24:18;;;;;;;;;;;25.60;66.90;;;;;;5002898;28;19997;-82
2022/07/01 12:26:54;;;;;;;;;;;25.60;66.90;;;;;;5002625;28;19928;-81
2022/07/01 12:29:22;;;;;;;;;;;25.60;66.80;;;;;;5005330;28;19949;-80
2022/07/01 12:31:56;;;;;;;;;;;25.60;66.80;;;;;;5007030;28;19992;-81
2022/07/01 12:34:23;;;;;;;;;;;25.60;66.80;;;;;;5009548;28;19922;-81
2022/07/01 12:36:52;;;;;;;;;;;25.60;66.70;;;;;;5007501;28;19922;-81
2022/07/01 12:39:19;;;;;;;;;;;25.60;66.70;;;;;;5003600;28;19932;-81
2022/07/01 12:41:52;;;;;;;;;;;25.60;66.70;;;;;;5006305;28;19921;-81
2022/07/01 12:44:22;;;;;;;;;;;25.60;66.70;;;;;;4999287;28;20022;-81
2022/07/01 12:46:49;;;;;;;;;;;25.60;66.70;;;;;;4996896;28;19973;-82
2022/07/01 12:49:19;;;;;;;;;;;25.60;66.70;;;;;;4997511;28;19972;-81
2022/07/01 12:51:46;;;;;;;;;;;25.60;66.60;;;;;;4998916;28;20374;-82
2022/07/01 12:54:27;;;;;;;;;;;25.60;66.60;;;;;;4997954;28;20444;-81
2022/07/01 12:56:55;;;;;;;;;;;25.50;66.50;;;;;;4997002;28;19922;-81
2022/07/01 12:59:22;;;;;;;;;;;25.60;66.50;;;;;;4997237;28;20053;-81
2022/07/01 13:01:49;;;;;;;;;;;25.60;66.50;;;;;;4998124;28;19941;-81
2022/07/01 13:04:23;;;;;;;;;;;25.60;66.50;;;;;;5002358;28;19928;-82
2022/07/01 13:06:50;;;;;;;;;;;25.60;66.40;;;;;;5001949;28;20350;-82
2022/07/01 13:09:17;;;;;;;;;;;25.60;66.30;;;;;;5005007;28;20395;-82
2022/07/01 13:11:44;;;;;;;;;;;25.60;66.30;;;;;;5002338;28;19975;-82
2022/07/01 13:14:12;;;;;;;;;;;25.60;66.30;;;;;;5000891;28;19976;-83
2022/07/01 13:16:40;;;;;;;;;;;25.60;66.20;;;;;;5003556;28;19925;-82
2022/07/01 13:19:06;;;;;;;;;;;25.60;66.20;;;;;;5005192;28;19945;-82
2022/07/01 13:21:33;;;;;;;;;;;25.60;66.10;;;;;;5007348;28;19922;-82
2022/07/01 13:24:00;;;;;;;;;;;25.60;66.20;;;;;;5006557;28;19964;-82
2022/07/01 13:26:26;;;;;;;;;;;25.60;66.20;;;;;;5003339;28;19976;-84
2022/07/01 13:28:53;;;;;;;;;;;25.60;66.20;;;;;;5000001;28;19953;-83
2022/07/01 13:31:22;;;;;;;;;;;25.60;66.20;;;;;;5003369;28;19921;-83
2022/07/01 13:33:48;;;;;;;;;;;25.60;66.20;;;;;;5001631;28;19921;-81
2022/07/01 13:36:15;;;;;;;;;;;25.60;66.10;;;;;;4999673;28;20389;-83
2022/07/01 13:38:43;;;;;;;;;;;25.60;66.10;;;;;;4999229;28;20297;-83
2022/07/01 13:41:10;;;;;;;;;;;25.60;66.00;;;;;;5001491;28;19976;-80
2022/07/01 13:43:36;;;;;;;;;;;25.60;66.00;;;;;;5002783;28;19922;-78
2022/07/01 13:46:04;;;;;;;;;;;25.60;66.00;;;;;;4999906;28;19965;-77
2022/07/01 13:48:32;;;;;;;;;;;25.60;65.90;;;;;;4995897;28;19929;-79
2022/07/01 13:50:59;;;;;;;;;;;25.60;65.80;;;;;;4995906;28;19933;-78
2022/07/01 13:53:26;;;;;;;;;;;25.60;65.80;;;;;;4995242;28;19928;-77
2022/07/01 13:55:53;;;;;;;;;;;25.60;65.70;;;;;;4994961;28;20342;-76
2022/07/01 13:58:19;;;;;;;;;;;25.60;65.40;;;;;;4995431;28;20016;-76
2022/07/01 14:00:46;;;;;;;;;;;25.60;65.30;;;;;;4994565;28;19961;-76
2022/07/01 14:03:13;;;;;;;;;;;25.50;65.00;;;;;;4995528;28;19921;-77
2022/07/01 14:05:41;;;;;;;;;;;25.50;64.80;;;;;;4995788;28;19932;-77
2022/07/01 14:08:08;;;;;;;;;;;25.50;64.70;;;;;;4995940;28;20012;-78
2022/07/01 14:10:37;;;;;;;;;;;25.50;64.50;;;;;;4994671;28;20012;-74
2022/07/01 14:13:07;;;;;;;;;;;25.50;64.30;;;;;;4997613;28;19944;-78
2022/07/01 14:15:35;;;;;;;;;;;25.40;64.00;;;;;;4999006;28;19921;-78
2022/07/01 14:18:02;;;;;;;;;;;25.40;63.70;;;;;;4999672;28;19922;-78
2022/07/01 14:20:28;;;;;;;;;;;25.40;63.40;;;;;;5001454;28;20016;-81
2022/07/01 14:22:56;;;;;;;;;;;25.40;63.10;;;;;;5003989;28;20301;-81
2022/07/01 14:25:23;;;;;;;;;;;25.30;62.60;;;;;;5004866;28;19975;-82
2022/07/01 14:27:50;;;;;;;;;;;25.30;62.10;;;;;;5004386;28;19979;-79
2022/07/01 14:30:17;;;;;;;;;;;25.20;61.70;;;;;;5003838;28;20341;-78
2022/07/01 14:32:44;;;;;;;;;;;25.20;61.30;;;;;;5003027;28;20017;-79
2022/07/01 14:35:10;;;;;;;;;;;25.20;61.10;;;;;;5003051;28;19922;-80
2022/07/01 14:37:39;;;;;;;;;;;25.10;61.10;;;;;;5003617;28;19969;-80
2022/07/01 14:40:08;;;;;;;;;;;25.10;61.00;;;;;;5002977;28;19961;-78
2022/07/01 14:42:35;;;;;;;;;;;25.10;61.00;;;;;;5002112;28;19922;-80
2022/07/01 14:45:02;;;;;;;;;;;25.10;61.00;;;;;;5001551;28;19928;-81
2022/07/01 14:47:29;;;;;;;;;;;25.10;61.00;;;;;;5002895;28;19969;-80
2022/07/01 14:49:56;;;;;;;;;;;25.10;61.10;;;;;;5002982;28;20016;-80
2022/07/01 14:52:23;;;;;;;;;;;25.10;61.00;;;;;;5002736;28;19929;-79
2022/07/01 14:54:50;;;;;;;;;;;25.10;61.00;;;;;;5000774;28;19926;-81
2022/07/01 14:57:18;;;;;;;;;;;25.10;60.80;;;;;;4999573;28;19929;-79
2022/07/01 14:59:45;;;;;;;;;;;25.10;60.80;;;;;;4999882;28;19993;-79
2022/07/01 15:02:12;;;;;;;;;;;25.10;60.70;;;;;;5001810;28;19960;-79
2022/07/01 15:04:39;;;;;;;;;;;25.10;60.60;;;;;;5001729;28;19964;-80
2022/07/01 15:07:07;;;;;;;;;;;25.10;60.40;;;;;;5001695;28;19945;-80
2022/07/01 15:09:34;;;;;;;;;;;25.10;60.30;;;;;;5000935;28;20009;-80
2022/07/01 15:12:01;;;;;;;;;;;25.10;60.20;;;;;;5001046;28;20012;-81
2022/07/01 15:14:30;;;;;;;;;;;25.10;60.10;;;;;;5000933;28;20025;-80
2022/07/01 15:16:57;;;;;;;;;;;25.00;60.10;;;;;;5000835;28;19928;-80
2022/07/01 15:19:25;;;;;;;;;;;25.00;59.80;;;;;;5002539;28;20336;-81
2022/07/01 15:21:52;;;;;;;;;;;25.00;59.70;;;;;;5000527;28;19922;-80
2022/07/01 15:24:18;;;;;;;;;;;24.90;59.60;;;;;;5000176;28;19921;-80
2022/07/01 15:26:45;;;;;;;;;;;24.90;59.60;;;;;;5000575;28;20302;-80
2022/07/01 15:29:12;;;;;;;;;;;24.90;59.60;;;;;;5001073;28;19965;-80
2022/07/01 15:31:40;;;;;;;;;;;24.90;59.60;;;;;;5000259;28;19961;-81
2022/07/01 15:34:07;;;;;;;;;;;24.90;59.50;;;;;;5000348;28;20024;-78
2022/07/01 15:36:33;;;;;;;;;;;24.90;59.50;;;;;;5002525;28;19957;-78
2022/07/01 15:39:00;;;;;;;;;;;24.90;59.60;;;;;;5001769;28;20428;-78
2022/07/01 15:41:27;;;;;;;;;;;24.90;59.60;;;;;;5000293;28;20024;-78
2022/07/01 15:43:54;;;;;;;;;;;24.90;59.70;;;;;;5001186;28;19965;-78
2022/07/01 15:46:20;;;;;;;;;;;24.90;59.80;;;;;;4999580;28;20036;-80
2022/07/01 15:48:49;;;;;;;;;;;24.90;59.80;;;;;;4999067;28;19928;-79
2022/07/01 15:51:16;;;;;;;;;;;24.90;59.80;;;;;;4998983;28;19973;-79
2022/07/01 15:53:43;;;;;;;;;;;24.90;59.90;;;;;;4997753;28;19922;-79
2022/07/01 15:56:09;;;;;;;;;;;24.90;59.80;;;;;;4998317;28;20357;-79
2022/07/01 15:58:36;;;;;;;;;;;24.90;59.70;;;;;;4998100;28;20016;-79
2022/07/01 16:01:03;;;;;;;;;;;24.90;59.60;;;;;;4998612;28;19993;-80
2022/07/01 16:03:30;;;;;;;;;;;24.90;59.60;;;;;;4999105;28;20012;-79
2022/07/01 16:06:01;;;;;;;;;;;24.80;59.50;;;;;;4998939;28;20012;-79
2022/07/01 16:08:30;;;;;;;;;;;24.80;59.40;;;;;;4998844;28;19969;-80
2022/07/01 16:10:59;;;;;;;;;;;24.80;59.40;;;;;;4999277;28;19929;-80
2022/07/01 16:13:28;;;;;;;;;;;24.80;59.30;;;;;;4999433;28;20024;-80
2022/07/01 16:15:55;;;;;;;;;;;24.70;59.30;;;;;;4999669;28;20416;-80
2022/07/01 16:18:24;;;;;;;;;;;24.70;59.30;;;;;;4999651;28;19944;-80
2022/07/01 16:20:52;;;;;;;;;;;24.70;59.30;;;;;;4998964;28;19961;-79
2022/07/01 16:23:24;;;;;;;;;;;24.80;59.50;;;;;;4999563;28;19972;-79
2022/07/01 16:25:50;;;;;;;;;;;24.80;59.50;;;;;;4999386;28;19961;-79
2022/07/01 16:28:17;;;;;;;;;;;24.80;59.60;;;;;;4998706;28;20000;-80
2022/07/01 16:30:44;;;;;;;;;;;24.80;59.60;;;;;;5000097;28;20016;-80
2022/07/01 16:33:11;;;;;;;;;;;24.80;59.60;;;;;;5000149;28;20004;-80
2022/07/01 16:35:45;;;;;;;;;;;24.80;59.70;;;;;;4999230;28;19981;-80
2022/07/01 16:38:14;;;;;;;;;;;24.80;59.70;;;;;;4998813;28;20337;-80
2022/07/01 16:40:44;;;;;;;;;;;24.80;59.70;;;;;;4998440;28;20444;-80
2022/07/01 16:43:13;;;;;;;;;;;24.80;59.80;;;;;;4998222;28;20012;-80
2022/07/01 16:45:42;;;;;;;;;;;24.80;59.80;;;;;;4998730;28;19973;-79
2022/07/01 16:48:09;;;;;;;;;;;24.80;60.60;;;;;;4998516;28;19928;-80
2022/07/01 16:50:38;;;;;;;;;;;24.80;60.00;;;;;;4999013;28;19922;-80
2022/07/01 16:53:10;;;;;;;;;;;24.90;60.30;;;;;;4999446;28;19981;-81
2022/07/01 16:55:40;;;;;;;;;;;24.90;60.40;;;;;;4998719;28;19988;-81
2022/07/01 16:58:09;;;;;;;;;;;24.90;60.50;;;;;;4999093;28;19972;-81
2022/07/01 17:00:35;;;;;;;;;;;24.90;61.30;;;;;;4999488;28;19922;-81
2022/07/01 17:03:03;;;;;;;;;;;24.90;60.80;;;;;;4998939;28;19993;-79
2022/07/01 17:05:30;;;;;;;;;;;24.90;60.80;;;;;;4999068;28;20005;-79
2022/07/01 17:07:58;;;;;;;;;;;24.90;60.90;;;;;;4999257;28;20024;-79
2022/07/01 17:10:27;;;;;;;;;;;24.90;60.90;;;;;;4997927;28;20011;-79
2022/07/01 17:12:54;;;;;;;;;;;24.90;60.90;;;;;;4997211;28;19973;-79
2022/07/01 17:15:22;;;;;;;;;;;24.90;60.90;;;;;;4996805;28;19964;-79
2022/07/01 17:17:49;;;;;;;;;;;24.90;60.90;;;;;;4997040;28;19928;-80
2022/07/01 17:20:16;;;;;;;;;;;24.90;60.90;;;;;;4996626;28;20344;-79
2022/07/01 17:22:47;;;;;;;;;;;24.90;60.90;;;;;;4997065;28;20019;-80
2022/07/01 17:25:19;;;;;;;;;;;24.90;60.90;;;;;;4996991;28;20012;-79
2022/07/01 17:27:51;;;;;;;;;;;24.90;60.90;;;;;;4996999;28;19928;-80
2022/07/01 17:30:19;;;;;;;;;;;24.90;60.90;;;;;;4996795;28;20016;-79
2022/07/01 17:32:51;;;;;;;;;;;24.90;60.90;;;;;;4996958;28;20359;-79
2022/07/01 17:35:18;;;;;;;;;;;24.90;60.90;;;;;;4997385;28;19929;-80
2022/07/01 17:37:46;;;;;;;;;;;24.90;60.90;;;;;;4996657;28;20326;-80
2022/07/01 17:40:13;;;;;;;;;;;24.90;60.90;;;;;;4997524;28;20357;-80
2022/07/01 17:42:42;;;;;;;;;;;24.90;60.90;;;;;;4996349;28;20008;-78
2022/07/01 17:45:10;;;;;;;;;;;24.90;61.70;;;;;;4995468;28;19928;-78
2022/07/01 17:47:36;;;;;;;;;;;24.90;60.90;;;;;;4995341;28;19961;-79
2022/07/01 17:50:05;;;;;;;;;;;24.90;60.90;;;;;;4995351;28;19933;-78
2022/07/01 17:52:33;;;;;;;;;;;24.90;60.90;;;;;;4995833;28;20332;-79
2022/07/01 17:54:59;;;;;;;;;;;24.90;60.90;;;;;;4999901;28;20012;-79
2022/07/01 17:57:27;;;;;;;;;;;24.90;60.90;;;;;;4998521;28;20021;-78
2022/07/01 17:59:56;;;;;;;;;;;24.90;60.90;;;;;;4998060;28;19925;-77
2022/07/01 18:02:23;;;;;;;;;;;24.90;60.90;;;;;;4999448;28;19928;-78
2022/07/01 18:04:50;;;;;;;;;;;24.90;60.90;;;;;;4998371;28;20004;-78
2022/07/01 18:07:18;;;;;;;;;;;24.90;60.90;;;;;;4998353;28;19984;-79
2022/07/01 18:09:44;;;;;;;;;;;24.90;60.90;;;;;;4998373;28;20012;-78
2022/07/01 18:12:13;;;;;;;;;;;24.90;60.90;;;;;;4998033;28;19921;-78
2022/07/01 18:14:46;;;;;;;;;;;24.90;60.90;;;;;;5000012;28;19921;-79
2022/07/01 18:17:17;;;;;;;;;;;24.90;60.90;;;;;;4998906;28;19928;-78
2022/07/01 18:19:57;;;;;;;;;;;24.90;60.90;;;;;;4999157;28;19926;-78
2022/07/01 18:22:28;;;;;;;;;;;24.90;60.90;;;;;;5002073;28;19988;-80
2022/07/01 18:24:56;;;;;;;;;;;24.90;60.90;;;;;;5000939;28;19921;-78
2022/07/01 18:27:26;;;;;;;;;;;24.90;60.90;;;;;;5002285;28;19968;-78
2022/07/01 18:29:55;;;;;;;;;;;24.90;60.90;;;;;;5000130;28;19928;-78
2022/07/01 18:32:23;;;;;;;;;;;24.90;60.90;;;;;;4999622;28;19921;-78